Time;durP1;ratioP1;P1;durP2;ratioP2;P2;SDS_P1;SDS_P2;PMS_P1;PMS_P2;Temp;Humidity;BMP_temperature;BMP_pressure;BME280_temperature;BME280_humidity;BME280_pressure;Samples;Min_cycle;Max_cycle;Signal;HPM_P1;HPM_P2
2022/06/11 00:01:45;;;;;;;4.97;3.17;;;20.10;59.60;;;;;;5124877;28;20142;-89
2022/06/11 00:04:16;;;;;;;7.17;3.53;;;20.10;58.50;;;;;;5115535;28;20220;-91
2022/06/11 00:06:46;;;;;;;6.87;3.87;;;20.00;61.40;;;;;;5095763;28;20865;-95
2022/06/11 00:09:13;;;;;;;7.47;3.27;;;19.90;64.60;;;;;;5094057;28;20173;-91
2022/06/11 00:11:40;;;;;;;6.77;3.37;;;19.80;67.40;;;;;;5113663;28;20248;-90
2022/06/11 00:14:07;;;;;;;6.27;3.93;;;19.80;68.50;;;;;;5135472;28;20173;-91
2022/06/11 00:16:33;;;;;;;9.53;3.50;;;19.80;67.90;;;;;;5094205;28;20179;-95
2022/06/11 00:19:02;;;;;;;5.43;3.40;;;19.70;69.20;;;;;;5115559;28;20198;-86
2022/06/11 00:21:32;;;;;;;6.03;3.40;;;19.70;71.10;;;;;;5123182;28;20165;-86
2022/06/11 00:23:58;;;;;;;7.33;3.43;;;19.70;72.90;;;;;;5120104;28;20181;-85
2022/06/11 00:26:28;;;;;;;8.13;3.70;;;19.60;74.50;;;;;;5121688;28;20261;-89
2022/06/11 00:28:57;;;;;;;8.17;3.80;;;19.70;75.40;;;;;;5097437;28;20193;-91
2022/06/11 00:31:24;;;;;;;5.50;3.03;;;19.80;73.00;;;;;;5113388;28;20216;-85
2022/06/11 00:33:50;;;;;;;6.57;3.40;;;19.80;71.10;;;;;;5119826;28;20149;-88
2022/06/11 00:36:18;;;;;;;7.73;3.67;;;19.90;69.80;;;;;;5120732;28;20191;-84
2022/06/11 00:38:45;;;;;;;6.53;3.60;;;19.80;69.90;;;;;;5104484;28;20185;-88
2022/06/11 00:41:11;;;;;;;6.53;3.57;;;19.70;70.00;;;;;;5119834;28;20262;-91
2022/06/11 00:43:39;;;;;;;5.33;3.50;;;19.90;69.00;;;;;;5088461;28;20188;-83
2022/06/11 00:46:27;;;;;;;6.53;3.00;;;19.90;68.10;;;;;;5122425;28;20162;-85
2022/06/11 00:48:53;;;;;;;6.33;3.83;;;19.90;68.60;;;;;;5122083;28;20183;-85
2022/06/11 00:51:22;;;;;;;7.07;3.23;;;19.80;67.20;;;;;;5104781;28;20214;-95
2022/06/11 00:54:03;;;;;;;6.47;3.50;;;19.80;67.10;;;;;;5104916;28;20245;-96
2022/06/11 00:56:54;;;;;;;6.73;3.80;;;19.70;70.10;;;;;;5104269;28;20181;-95
2022/06/11 00:59:27;;;;;;;7.93;3.63;;;19.40;72.80;;;;;;5090637;28;20169;-96
2022/06/11 01:01:53;;;;;;;5.03;3.33;;;19.70;71.50;;;;;;5130819;28;20165;-92
2022/06/11 01:04:40;;;;;;;6.20;3.70;;;19.60;73.40;;;;;;5118588;28;20271;-95
2022/06/11 01:07:30;;;;;;;6.10;3.50;;;19.50;74.50;;;;;;5112747;28;20201;-96
2022/06/11 01:10:07;;;;;;;7.07;3.57;;;19.50;77.30;;;;;;5107955;28;20194;-95
2022/06/11 01:12:58;;;;;;;8.50;4.17;;;19.40;80.10;;;;;;5105284;28;20199;-93
2022/06/11 01:15:33;;;;;;;7.20;3.87;;;19.30;81.50;;;;;;5105620;28;20172;-95
2022/06/11 01:18:40;;;;;;;7.67;4.00;;;19.50;77.60;;;;;;5106629;28;20512;-95
2022/06/11 01:21:28;;;;;;;4.97;3.63;;;19.50;76.00;;;;;;5122787;28;20273;-93
2022/06/11 01:24:23;;;;;;;8.23;4.00;;;19.40;77.60;;;;;;5114103;28;20168;-93
2022/06/11 01:26:51;;;;;;;6.40;3.53;;;19.50;76.00;;;;;;5121699;28;20155;-87
2022/06/11 01:29:36;;;;;;;9.03;3.73;;;19.30;79.40;;;;;;5121849;28;20195;-87
2022/06/11 01:32:17;;;;;;;7.70;3.93;;;19.30;81.60;;;;;;5115927;28;20220;-94
2022/06/11 01:35:04;;;;;;;6.00;4.03;;;19.40;82.90;;;;;;5104880;28;20243;-94
2022/06/11 01:37:41;;;;;;;9.10;4.43;;;19.50;76.60;;;;;;5102736;28;20195;-95
2022/06/11 01:40:42;;;;;;;6.70;4.00;;;19.60;73.30;;;;;;5107511;28;20183;-91
2022/06/11 01:43:17;;;;;;;7.37;3.80;;;19.50;76.70;;;;;;5110503;28;20179;-92
2022/06/11 01:45:47;;;;;;;5.83;4.20;;;19.40;79.10;;;;;;5139191;28;20160;-85
2022/06/11 01:48:20;;;;;;;6.43;3.70;;;19.30;83.30;;;;;;5121601;28;20165;-88
2022/06/11 01:51:23;;;;;;;7.23;3.80;;;19.10;86.40;;;;;;5121161;28;20200;-87
2022/06/11 01:57:43;;;;;;;5.93;3.60;;;19.20;87.50;;;;;;5125471;28;20234;-94
2022/06/11 02:00:15;;;;;;;5.57;3.53;;;19.30;85.00;;;;;;5069617;28;20187;-89
2022/06/11 02:02:43;;;;;;;10.97;4.33;;;19.40;84.00;;;;;;5132950;28;20163;-95
2022/06/11 02:05:32;;;;;;;8.63;4.60;;;19.40;81.90;;;;;;5111180;28;20148;-86
2022/06/11 02:08:13;;;;;;;8.23;4.13;;;19.50;80.40;;;;;;5120403;28;20189;-86
2022/06/11 02:11:00;;;;;;;6.47;4.23;;;19.40;83.70;;;;;;5114167;28;20203;-86
2022/06/11 02:13:41;;;;;;;5.67;4.23;;;19.30;85.00;;;;;;5117446;28;20167;-93
2022/06/11 02:16:19;;;;;;;8.50;4.00;;;19.40;86.20;;;;;;5108667;28;20170;-91
2022/06/11 02:18:49;;;;;;;5.03;4.10;;;19.40;84.80;;;;;;5111389;28;20699;-95
2022/06/11 02:21:19;;;;;;;5.43;3.80;;;19.40;85.40;;;;;;5085921;28;20187;-92
2022/06/11 02:23:58;;;;;;;6.07;4.27;;;19.40;83.70;;;;;;5101062;28;20643;-95
2022/06/11 02:26:28;;;;;;;6.47;3.83;;;19.60;78.90;;;;;;5084480;28;20268;-95
2022/06/11 02:28:57;;;;;;;7.77;4.50;;;19.50;80.30;;;;;;5111512;28;20180;-86
2022/06/11 02:31:29;;;;;;;7.17;4.97;;;19.60;79.30;;;;;;5117034;28;20211;-94
2022/06/11 02:33:56;;;;;;;7.60;4.00;;;19.60;79.50;;;;;;5106722;28;20241;-87
2022/06/11 02:36:44;;;;;;;6.63;4.37;;;19.60;79.70;;;;;;5104204;28;20203;-96
2022/06/11 02:39:10;;;;;;;6.33;4.20;;;19.40;81.40;;;;;;5107595;28;20188;-86
2022/06/11 02:41:37;;;;;;;6.60;4.10;;;19.50;83.90;;;;;;5106245;28;20183;-90
2022/06/11 02:44:03;;;;;;;7.17;4.30;;;19.50;83.70;;;;;;5111493;28;20191;-92
2022/06/11 02:46:43;;;;;;;6.33;3.90;;;19.60;80.60;;;;;;5108736;28;20188;-93
2022/06/11 02:49:20;;;;;;;7.37;4.20;;;19.50;81.40;;;;;;5122711;28;20699;-94
2022/06/11 02:51:47;;;;;;;5.97;3.70;;;19.30;84.30;;;;;;5109096;28;20291;-96
2022/06/11 02:54:14;;;;;;;7.53;3.93;;;19.20;88.70;;;;;;5104882;28;20625;-89
2022/06/11 02:56:41;;;;;;;7.30;3.93;;;19.10;90.60;;;;;;5116318;28;20199;-90
2022/06/11 02:59:07;;;;;;;7.17;4.30;;;19.10;91.50;;;;;;5095952;28;20173;-96
2022/06/11 03:01:34;;;;;;;6.77;4.40;;;19.10;91.70;;;;;;5107169;28;20178;-95
2022/06/11 03:04:01;;;;;;;6.97;4.63;;;19.00;91.40;;;;;;5092972;28;20173;-96
2022/06/11 03:06:29;;;;;;;5.50;4.17;;;19.00;91.90;;;;;;5128681;28;20176;-96
2022/06/11 03:08:57;;;;;;;7.03;4.23;;;19.00;91.60;;;;;;5138742;28;20165;-90
2022/06/11 03:11:23;;;;;;;7.07;4.17;;;19.00;91.80;;;;;;5123116;28;20220;-87
2022/06/11 03:13:49;;;;;;;9.73;4.23;;;18.90;92.70;;;;;;5106325;28;20199;-96
2022/06/11 03:16:16;;;;;;;6.10;3.77;;;18.90;92.00;;;;;;5117292;28;20609;-95
2022/06/11 03:18:41;;;;;;;5.73;3.70;;;19.00;91.10;;;;;;5115886;28;20248;-94
2022/06/11 03:21:07;;;;;;;5.97;4.40;;;19.10;91.00;;;;;;5110333;28;20179;-95
2022/06/11 03:23:33;;;;;;;9.53;4.30;;;19.10;90.40;;;;;;5107338;28;20200;-96
2022/06/11 03:25:59;;;;;;;5.40;3.90;;;19.20;90.10;;;;;;5091343;28;20182;-91
2022/06/11 03:28:30;;;;;;;4.30;3.87;;;19.30;86.70;;;;;;5115512;28;20168;-91
2022/06/11 03:30:58;;;;;;;7.00;4.10;;;19.30;83.30;;;;;;5110946;28;20209;-96
2022/06/11 03:33:24;;;;;;;8.47;4.00;;;19.30;83.50;;;;;;5103391;28;20209;-96
2022/06/11 03:35:51;;;;;;;8.37;3.90;;;19.30;84.30;;;;;;5102321;28;20164;-93
2022/06/11 03:38:20;;;;;;;5.70;3.70;;;19.30;83.20;;;;;;5086488;28;20207;-88
2022/06/11 03:40:46;;;;;;;7.37;3.80;;;19.20;83.00;;;;;;5084949;28;20196;-88
2022/06/11 03:43:12;;;;;;;7.23;4.00;;;19.20;83.40;;;;;;5101662;28;20187;-96
2022/06/11 03:45:41;;;;;;;10.87;4.43;;;19.20;83.00;;;;;;5100259;28;20219;-85
2022/06/11 03:48:07;;;;;;;6.50;4.07;;;19.10;83.10;;;;;;5123325;28;20168;-85
2022/06/11 03:50:36;;;;;;;7.03;4.17;;;19.30;78.30;;;;;;5105263;28;20194;-84
2022/06/11 03:53:05;;;;;;;6.53;3.80;;;19.30;76.70;;;;;;5120384;28;20247;-94
2022/06/11 03:55:38;;;;;;;6.07;3.37;;;19.30;77.70;;;;;;5107684;28;20177;-96
2022/06/11 03:58:05;;;;;;;8.10;4.00;;;19.00;78.00;;;;;;5106807;28;20182;-93
2022/06/11 04:03:18;;;;;;;6.33;3.63;;;19.30;70.10;;;;;;5128289;28;20175;-91
2022/06/11 04:05:46;;;;;;;5.10;3.20;;;19.30;68.50;;;;;;5126770;28;20170;-93
2022/06/11 04:08:12;;;;;;;5.50;3.53;;;19.30;66.80;;;;;;5138967;28;20163;-83
2022/06/11 04:10:39;;;;;;;8.13;3.50;;;19.20;67.20;;;;;;5122867;28;20272;-85
2022/06/11 04:13:08;;;;;;;5.57;2.90;;;19.30;61.80;;;;;;5106224;28;20188;-84
2022/06/11 04:15:37;;;;;;;6.43;3.07;;;19.30;59.70;;;;;;5140283;28;20174;-88
2022/06/11 04:18:43;;;;;;;7.00;3.07;;;19.30;55.40;;;;;;5104745;28;20189;-91
2022/06/11 04:21:34;;;;;;;5.27;2.90;;;19.20;55.50;;;;;;5120689;28;20178;-87
2022/06/11 04:24:01;;;;;;;5.67;2.77;;;19.10;56.50;;;;;;5118180;28;20167;-92
2022/06/11 04:26:36;;;;;;;8.20;3.57;;;18.90;58.90;;;;;;5098003;28;20185;-86
2022/06/11 04:29:04;;;;;;;7.63;2.93;;;18.90;60.30;;;;;;5106377;28;20186;-86
2022/06/11 04:31:32;;;;;;;5.90;2.60;;;19.00;55.60;;;;;;5122648;28;20200;-85
2022/06/11 04:34:02;;;;;;;6.47;2.80;;;19.00;54.80;;;;;;5120574;28;20183;-93
2022/06/11 04:36:44;;;;;;;8.60;2.77;;;18.90;48.80;;;;;;5109404;28;20214;-85
2022/06/11 04:39:11;;;;;;;5.23;2.43;;;18.90;50.20;;;;;;5121184;28;20162;-86
2022/06/11 04:41:37;;;;;;;7.20;2.70;;;18.90;49.90;;;;;;5120116;28;20182;-87
2022/06/11 04:44:04;;;;;;;5.33;2.47;;;19.00;44.10;;;;;;5097409;28;20177;-93
2022/06/11 04:46:31;;;;;;;5.77;2.30;;;19.00;38.20;;;;;;5091533;28;20225;-89
2022/06/11 04:48:57;;;;;;;6.90;2.37;;;18.90;36.70;;;;;;5103786;28;20579;-93
2022/06/11 04:51:23;;;;;;;7.90;2.43;;;18.70;43.80;;;;;;5086137;28;20260;-94
2022/06/11 04:53:49;;;;;;;7.27;2.37;;;18.70;35.10;;;;;;5103508;28;20169;-92
2022/06/11 04:56:18;;;;;;;7.10;2.40;;;18.80;34.50;;;;;;5110936;28;20185;-86
2022/06/11 04:58:44;;;;;;;5.87;2.30;;;18.90;27.60;;;;;;5118029;28;20174;-93
2022/06/11 05:01:11;;;;;;;7.60;2.13;;;18.90;20.00;;;;;;5088083;28;20635;-95
2022/06/11 05:03:38;;;;;;;5.10;2.20;;;18.70;13.00;;;;;;5084299;28;20175;-95
2022/06/11 05:06:04;;;;;;;6.63;2.07;;;18.70;13.40;;;;;;5100846;28;20179;-94
2022/06/11 05:08:30;;;;;;;6.33;2.40;;;18.70;6.30;;;;;;5119502;28;20562;-93
2022/06/11 05:10:56;;;;;;;7.37;2.10;;;18.70;1.00;;;;;;5086756;28;20659;-93
2022/06/11 05:13:22;;;;;;;7.83;2.20;;;18.60;7.00;;;;;;5104077;28;20176;-95
2022/06/11 05:15:53;;;;;;;9.40;2.40;;;18.50;12.40;;;;;;5104944;28;20237;-95
2022/06/11 05:18:21;;;;;;;9.57;2.33;;;18.50;16.90;;;;;;5104516;28;20247;-96
2022/06/11 05:20:52;;;;;;;7.93;2.40;;;18.60;19.20;;;;;;5107852;28;20271;-96
2022/06/11 05:23:19;;;;;;;7.87;2.17;;;18.70;20.80;;;;;;5108050;28;20200;-96
2022/06/11 05:25:46;;;;;;;8.40;2.10;;;18.70;13.60;;;;;;5092637;28;20190;-96
2022/06/11 05:28:26;;;;;;;8.23;2.53;;;18.50;1.00;;;;;;5091173;28;20252;-94
2022/06/11 05:30:53;;;;;;;5.50;2.20;;;18.60;1.00;;;;;;5121450;28;20208;-87
2022/06/11 05:33:20;;;;;;;6.20;2.10;;;18.50;1.00;;;;;;5111592;28;20179;-95
2022/06/11 05:35:46;;;;;;;8.97;2.50;;;18.60;1.00;;;;;;5110390;28;20179;-94
2022/06/11 05:38:18;;;;;;;7.87;2.37;;;18.40;1.00;;;;;;5089193;28;20175;-91
2022/06/11 05:40:53;;;;;;;5.67;1.87;;;18.40;1.00;;;;;;5088775;28;20202;-92
2022/06/11 05:43:20;;;;;;;9.43;2.30;;;18.50;1.00;;;;;;5108088;28;20186;-92
2022/06/11 05:46:05;;;;;;;8.50;2.57;;;18.60;1.00;;;;;;5106734;28;20360;-95
2022/06/11 05:48:37;;;;;;;8.80;2.40;;;18.70;1.00;;;;;;5107135;28;20174;-96
2022/06/11 05:51:05;;;;;;;7.03;2.43;;;18.70;1.00;;;;;;5104261;28;20221;-91
2022/06/11 05:53:40;;;;;;;9.33;2.43;;;18.80;1.00;;;;;;5087324;28;20186;-94
2022/06/11 05:56:07;;;;;;;6.27;2.40;;;18.70;1.00;;;;;;5088360;28;20190;-96
2022/06/11 05:58:42;;;;;;;11.00;2.77;;;18.70;3.30;;;;;;5087809;28;20174;-93
2022/06/11 06:01:09;;;;;;;7.67;2.67;;;18.70;1.00;;;;;;5070113;28;20181;-95
2022/06/11 06:03:41;;;;;;;13.00;2.67;;;18.50;1.00;;;;;;5103785;28;20543;-90
2022/06/11 06:06:17;;;;;;;6.73;2.47;;;18.40;1.00;;;;;;5104795;28;20175;-93
2022/06/11 06:08:53;;;;;;;9.37;2.77;;;18.40;1.00;;;;;;5127665;28;20160;-95
2022/06/11 06:11:20;;;;;;;6.30;2.50;;;18.40;1.00;;;;;;5107805;28;20248;-91
2022/06/11 06:13:47;;;;;;;10.10;2.43;;;18.30;1.00;;;;;;5109121;28;20245;-91
2022/06/11 06:16:19;;;;;;;8.30;2.83;;;18.30;1.00;;;;;;5109876;28;20694;-94
2022/06/11 06:18:48;;;;;;;8.13;2.43;;;18.30;1.00;;;;;;5094614;28;20178;-93
2022/06/11 06:21:16;;;;;;;10.50;3.10;;;18.20;1.00;;;;;;5073656;28;20631;-84
2022/06/11 06:23:42;;;;;;;10.17;2.70;;;18.10;1.00;;;;;;5105027;28;20201;-87
2022/06/11 06:26:08;;;;;;;9.83;3.30;;;17.90;1.00;;;;;;5099061;28;20175;-91
2022/06/11 06:28:35;;;;;;;9.07;2.50;;;17.80;1.00;;;;;;5103955;28;20166;-91
2022/06/11 06:31:05;;;;;;;10.97;3.00;;;17.90;1.00;;;;;;5103178;28;20211;-93
2022/06/11 06:33:34;;;;;;;7.97;2.73;;;17.90;1.00;;;;;;5103283;28;20706;-92
2022/06/11 06:36:05;;;;;;;12.67;3.27;;;18.10;1.00;;;;;;5103833;28;20189;-95
2022/06/11 06:38:32;;;;;;;9.47;2.90;;;18.10;1.00;;;;;;5103920;28;20180;-89
2022/06/11 06:40:58;;;;;;;14.10;3.37;;;18.20;1.00;;;;;;5106266;28;20684;-92
2022/06/11 06:43:30;;;;;;;9.73;3.20;;;18.30;1.00;;;;;;5110425;28;20210;-89
2022/06/11 06:45:56;;;;;;;11.10;3.17;;;18.40;1.00;;;;;;5107565;28;20594;-92
2022/06/11 06:48:22;;;;;;;10.30;2.93;;;18.50;1.00;;;;;;5074917;28;20179;-92
2022/06/11 06:50:51;;;;;;;12.13;3.10;;;18.50;1.00;;;;;;5117831;28;20207;-89
2022/06/11 06:53:16;;;;;;;12.50;2.77;;;18.40;1.00;;;;;;5121528;28;20181;-91
2022/06/11 06:55:42;;;;;;;12.70;3.30;;;18.40;1.00;;;;;;5095524;28;20175;-91
2022/06/11 06:58:14;;;;;;;13.03;3.20;;;18.40;1.00;;;;;;5107726;28;20522;-89
2022/06/11 07:00:50;;;;;;;12.27;3.13;;;18.30;1.00;;;;;;5106116;28;20200;-94
2022/06/11 07:03:17;;;;;;;8.90;3.00;;;18.30;1.00;;;;;;5141873;28;20143;-87
2022/06/11 07:05:54;;;;;;;11.03;2.53;;;18.40;1.00;;;;;;5123299;28;20159;-90
2022/06/11 07:08:30;;;;;;;8.30;3.30;;;18.50;1.00;;;;;;5123922;28;20195;-84
2022/06/11 07:17:43;;;;;;;10.30;3.13;;;18.70;1.00;;;;;;5134972;28;20165;-87
2022/06/11 07:23:39;;;;;;;12.57;2.97;;;18.70;1.00;;;;;;5124601;28;20201;-92
2022/06/11 07:26:15;;;;;;;11.97;3.27;;;18.80;1.00;;;;;;5112785;28;20166;-92
2022/06/11 07:28:54;;;;;;;14.50;3.13;;;18.90;1.00;;;;;;5108399;28;20745;-92
2022/06/11 07:31:22;;;;;;;10.00;2.70;;;19.10;1.00;;;;;;5109870;28;20208;-90
2022/06/11 07:33:49;;;;;;;11.90;3.20;;;19.10;1.00;;;;;;5123075;28;20171;-86
2022/06/11 07:36:38;;;;;;;10.73;2.90;;;19.10;1.00;;;;;;5140629;28;20173;-88
2022/06/11 07:39:18;;;;;;;12.70;3.10;;;19.10;1.00;;;;;;5123879;28;20234;-85
2022/06/11 07:42:21;;;;;;;10.90;3.63;;;19.10;1.00;;;;;;5106772;28;20159;-85
2022/06/11 07:45:41;;;;;;;10.93;2.87;;;19.20;1.00;;;;;;5123808;28;20163;-85
2022/06/11 07:51:51;;;;;;;12.87;3.80;;;19.30;1.00;;;;;;5139765;28;20232;-93
2022/06/11 07:54:20;;;;;;;11.40;3.10;;;19.30;1.00;;;;;;5117404;28;20186;-96
2022/06/11 07:56:48;;;;;;;12.33;2.97;;;19.50;1.00;;;;;;5109509;28;20175;-92
2022/06/11 07:59:14;;;;;;;13.07;3.43;;;19.50;1.00;;;;;;5113047;28;20194;-96
2022/06/11 08:01:42;;;;;;;15.30;3.43;;;19.60;1.00;;;;;;5130902;28;20197;-95
2022/06/11 08:04:14;;;;;;;15.13;3.70;;;19.70;1.00;;;;;;5139406;28;20240;-88
2022/06/11 08:06:40;;;;;;;13.63;3.33;;;19.80;1.00;;;;;;5104462;28;20183;-90
2022/06/11 08:09:07;;;;;;;11.23;2.50;;;20.00;1.00;;;;;;5115529;28;20183;-94
2022/06/11 08:11:33;;;;;;;13.60;3.23;;;19.90;1.00;;;;;;5095007;28;20200;-95
2022/06/11 08:14:00;;;;;;;11.80;3.43;;;19.90;1.00;;;;;;5120975;28;20282;-89
2022/06/11 08:16:27;;;;;;;12.47;3.53;;;19.90;1.00;;;;;;5139075;28;20168;-88
2022/06/11 08:18:57;;;;;;;11.87;3.23;;;19.90;1.00;;;;;;5093938;28;20182;-93
2022/06/11 08:21:24;;;;;;;11.33;3.10;;;20.00;1.00;;;;;;5107262;28;20171;-92
2022/06/11 08:24:22;;;;;;;10.90;2.97;;;20.00;1.00;;;;;;5111776;28;20168;-88
2022/06/11 08:26:50;;;;;;;9.50;3.20;;;20.10;1.00;;;;;;5116760;28;20213;-94
2022/06/11 08:29:17;;;;;;;9.77;2.87;;;20.00;1.00;;;;;;5107972;28;20175;-95
2022/06/11 08:31:44;;;;;;;8.33;2.77;;;19.80;1.00;;;;;;5107476;28;20218;-90
2022/06/11 08:34:25;;;;;;;10.30;2.80;;;19.70;1.00;;;;;;5074314;28;20192;-95
2022/06/11 08:36:55;;;;;;;12.90;3.10;;;19.90;1.00;;;;;;5098247;28;20212;-86
2022/06/11 08:39:42;;;;;;;11.90;2.97;;;20.00;1.00;;;;;;5098788;28;20181;-95
2022/06/11 08:42:55;;;;;;;9.87;2.90;;;20.10;1.00;;;;;;5097531;28;20826;-94
2022/06/11 08:46:00;;;;;;;9.93;2.77;;;20.20;1.00;;;;;;5099974;28;20191;-86
2022/06/11 08:49:08;;;;;;;9.50;3.13;;;20.00;1.00;;;;;;5094174;28;20198;-91
2022/06/11 08:52:13;;;;;;;11.70;3.67;;;20.00;1.00;;;;;;5089184;28;20212;-86
2022/06/11 08:54:42;;;;;;;7.83;2.70;;;20.30;1.00;;;;;;5080271;28;20176;-88
2022/06/11 08:57:53;;;;;;;11.37;3.47;;;20.30;1.00;;;;;;5111468;28;20194;-86
2022/06/11 09:00:34;;;;;;;12.83;3.20;;;20.20;1.00;;;;;;5098195;28;20177;-86
2022/06/11 09:03:45;;;;;;;10.70;3.60;;;20.30;1.00;;;;;;5097830;28;20242;-86
2022/06/11 09:06:33;;;;;;;9.50;2.77;;;20.40;1.00;;;;;;5076606;28;20181;-86
2022/06/11 09:09:11;;;;;;;12.33;3.33;;;20.70;1.00;;;;;;5091564;28;20230;-86
2022/06/11 09:11:54;;;;;;;14.10;4.00;;;20.90;1.00;;;;;;5075647;28;20213;-86
2022/06/11 09:14:49;;;;;;;11.67;2.80;;;21.10;1.00;;;;;;5092247;28;20181;-86
2022/06/11 09:17:54;;;;;;;11.50;2.97;;;21.10;1.00;;;;;;5093014;28;20201;-85
2022/06/11 09:20:25;;;;;;;9.73;2.80;;;21.10;1.00;;;;;;5110831;28;20209;-87
2022/06/11 09:23:30;;;;;;;11.70;2.80;;;20.90;1.00;;;;;;5088432;28;20285;-87
2022/06/11 09:26:06;;;;;;;10.67;3.37;;;20.90;1.00;;;;;;5088287;28;20194;-87
2022/06/11 09:28:40;;;;;;;8.53;2.80;;;21.10;1.00;;;;;;5089926;28;20185;-86
2022/06/11 09:31:27;;;;;;;14.73;3.67;;;21.00;1.00;;;;;;5090661;28;20240;-86
2022/06/11 09:34:41;;;;;;;8.37;3.00;;;20.90;1.00;;;;;;5093948;28;20177;-86
2022/06/11 09:37:16;;;;;;;11.10;3.83;;;21.10;1.00;;;;;;5096767;28;20653;-87
2022/06/11 09:40:10;;;;;;;8.87;3.30;;;21.20;1.00;;;;;;5077839;28;20185;-87
2022/06/11 09:42:53;;;;;;;9.63;2.70;;;21.40;1.00;;;;;;5091302;28;20171;-87
2022/06/11 09:45:51;;;;;;;11.37;3.33;;;21.40;1.00;;;;;;5091220;28;20166;-87
2022/06/11 09:48:33;;;;;;;12.53;3.00;;;21.60;1.00;;;;;;5088895;28;20190;-86
2022/06/11 09:51:11;;;;;;;7.03;2.60;;;21.80;1.00;;;;;;5064759;28;20226;-88
2022/06/11 09:54:04;;;;;;;10.40;2.70;;;21.90;99.90;;;;;;5071505;28;20218;-85
2022/06/11 09:57:06;;;;;;;9.70;2.53;;;21.90;99.90;;;;;;5081560;28;20653;-87
2022/06/11 09:59:47;;;;;;;9.73;2.97;;;22.00;99.90;;;;;;5080680;28;20204;-87
2022/06/11 10:05:42;;;;;;;8.73;2.50;;;22.10;99.90;;;;;;5100451;28;20295;-86
2022/06/11 10:08:38;;;;;;;7.97;2.47;;;22.10;99.90;;;;;;5088973;28;20171;-86
2022/06/11 10:11:14;;;;;;;10.43;3.00;;;22.00;99.90;;;;;;5111742;28;20204;-87
2022/06/11 10:13:48;;;;;;;8.07;2.57;;;22.00;1.00;;;;;;5093287;28;20175;-87
2022/06/11 10:16:34;;;;;;;8.90;2.40;;;22.10;99.90;;;;;;5112526;28;20163;-86
2022/06/11 10:19:48;;;;;;;10.63;3.30;;;22.00;99.90;;;;;;5113735;28;20199;-85
2022/06/11 10:22:56;;;;;;;8.40;2.47;;;22.00;99.90;;;;;;5091678;28;20238;-85
2022/06/11 10:25:52;;;;;;;10.23;3.10;;;21.70;99.90;;;;;;5113196;28;20227;-87
2022/06/11 10:28:38;;;;;;;10.07;3.37;;;21.50;1.00;;;;;;5094235;28;20176;-96
2022/06/11 10:38:43;;;;;;;9.30;2.83;;;22.00;1.00;;;;;;5118118;28;20169;-87
2022/06/11 10:41:50;;;;;;;6.43;2.40;;;22.20;1.00;;;;;;5115726;28;20186;-86
2022/06/11 10:47:44;;;;;;;7.97;2.40;;;22.50;99.90;;;;;;5102969;28;20242;-89
2022/06/11 10:50:11;;;;;;;7.57;2.33;;;22.40;99.90;;;;;;5101282;28;20159;-87
2022/06/11 10:52:58;;;;;;;7.90;2.10;;;22.40;99.90;;;;;;5088805;28;20230;-90
2022/06/11 10:55:36;;;;;;;7.23;2.03;;;22.40;75.70;;;;;;5092724;28;20163;-92
2022/06/11 10:58:18;;;;;;;10.23;2.67;;;22.60;99.90;;;;;;5096434;28;20169;-93
2022/06/11 11:01:08;;;;;;;8.30;2.30;;;22.70;99.90;;;;;;5102941;28;20241;-90
2022/06/11 11:03:41;;;;;;;7.60;2.37;;;22.60;65.10;;;;;;5099257;28;20165;-88
2022/06/11 11:06:09;;;;;;;10.07;2.50;;;22.70;96.30;;;;;;5093119;28;20164;-90
2022/06/11 11:08:55;;;;;;;7.73;2.90;;;22.80;99.90;;;;;;5091670;28;20196;-92
2022/06/11 11:11:55;;;;;;;11.13;4.07;;;23.00;99.90;;;;;;5103152;28;20204;-87
2022/06/11 11:14:43;;;;;;;9.27;2.43;;;23.20;99.90;;;;;;5103569;28;20165;-87
2022/06/11 11:17:32;;;;;;;7.57;3.40;;;23.10;99.90;;;;;;5121286;28;20168;-90
2022/06/11 11:20:49;;;;;;;7.33;2.40;;;23.10;99.90;;;;;;5103884;28;20256;-92
2022/06/11 11:23:22;;;;;;;11.57;3.03;;;23.20;99.90;;;;;;5002980;28;20193;-89
2022/06/11 11:26:32;;;;;;;7.33;2.20;;;23.10;99.90;;;;;;5031733;28;20300;-87
2022/06/11 11:29:22;;;;;;;9.57;2.40;;;22.90;99.90;;;;;;5091346;28;20189;-86
2022/06/11 11:32:30;;;;;;;6.93;2.00;;;22.90;99.90;;;;;;5099916;28;20190;-85
2022/06/11 11:38:23;;;;;;;6.30;1.90;;;22.60;99.90;;;;;;5120218;28;20170;-85
2022/06/11 11:44:35;;;;;;;6.73;2.10;;;22.50;99.90;;;;;;5120296;28;20220;-91
2022/06/11 11:47:39;;;;;;;6.67;1.80;;;22.80;99.90;;;;;;5072738;28;20198;-91
2022/06/11 11:50:51;;;;;;;7.57;2.30;;;22.90;99.90;;;;;;5100461;28;20147;-85
2022/06/11 11:57:12;;;;;;;9.43;2.33;;;23.70;1.00;;;;;;5120456;28;20207;-84
2022/06/11 12:09:58;;;;;;;10.20;2.17;;;23.40;17.00;;;;;;5119908;28;20164;-85
2022/06/11 12:16:23;;;;;;;7.40;2.37;;;23.00;99.90;;;;;;5099472;28;20164;-84
2022/06/11 12:19:23;;;;;;;9.00;2.50;;;23.20;99.90;;;;;;5099054;28;20185;-89
2022/06/11 12:22:04;;;;;;;7.40;2.00;;;23.30;99.90;;;;;;5082297;28;20201;-89
2022/06/11 12:24:52;;;;;;;8.87;2.67;;;23.60;99.90;;;;;;5083020;28;20168;-92
2022/06/11 12:27:40;;;;;;;7.20;2.53;;;23.90;99.90;;;;;;5064782;28;20167;-92
2022/06/11 12:34:09;;;;;;;6.77;2.37;;;23.50;99.90;;;;;;5098012;28;20230;-86
2022/06/11 12:37:14;;;;;;;8.23;2.60;;;23.30;99.90;;;;;;5076990;28;20204;-88
2022/06/11 12:40:41;;;;;;;8.43;2.30;;;23.30;99.90;;;;;;5097587;28;20165;-88
2022/06/11 12:50:12;;;;;;;9.20;2.20;;;23.10;99.90;;;;;;5067025;28;20161;-86
2022/06/11 12:56:41;;;;;;;7.13;2.20;;;22.90;99.90;;;;;;4977892;28;20177;-86
2022/06/11 12:59:32;;;;;;;6.20;1.90;;;23.20;99.90;;;;;;4962063;29;20167;-86
2022/06/11 13:02:46;;;;;;;5.07;2.10;;;23.30;99.90;;;;;;4973968;29;20173;-89
2022/06/11 13:12:23;;;;;;;6.57;2.20;;;23.80;99.90;;;;;;5036717;28;20204;-86
2022/06/11 13:18:36;;;;;;;7.33;2.33;;;23.70;99.90;;;;;;5035789;28;20189;-86
2022/06/11 13:22:06;;;;;;;7.33;2.17;;;23.90;99.90;;;;;;5028156;28;20197;-89
2022/06/11 13:24:49;;;;;;;6.73;1.93;;;24.00;99.90;;;;;;5019418;28;20170;-86
2022/06/11 13:28:00;;;;;;;7.23;2.13;;;24.20;99.90;;;;;;5057096;28;20222;-85
2022/06/11 13:31:16;;;;;;;4.53;1.77;;;24.10;17.40;;;;;;5080082;28;20170;-85
2022/06/11 13:34:23;;;;;;;9.87;5.90;;;23.90;99.90;;;;;;5080801;28;20178;-86
2022/06/11 13:37:41;;;;;;;7.57;2.00;;;23.70;99.90;;;;;;5098006;28;20186;-87
2022/06/11 13:44:38;;;;;;;8.57;2.80;;;23.70;99.90;;;;;;5076374;28;20208;-85
2022/06/11 13:47:41;;;;;;;5.97;2.00;;;23.60;99.90;;;;;;5076368;28;20230;-87
2022/06/11 13:50:44;;;;;;;9.17;2.60;;;23.40;99.90;;;;;;5056493;28;20159;-96
2022/06/11 13:57:34;;;;;;;4.87;1.93;;;23.50;99.90;;;;;;5075163;28;20354;-89
2022/06/11 14:00:32;;;;;;;7.40;2.57;;;23.60;99.90;;;;;;5084078;28;20292;-90
2022/06/11 14:03:38;;;;;;;8.07;3.13;;;23.60;99.90;;;;;;5083351;28;20167;-86
2022/06/11 14:06:15;;;;;;;6.53;2.27;;;23.70;99.90;;;;;;5079435;28;20225;-87
2022/06/11 14:10:20;;;;;;;7.47;2.67;;;23.80;99.90;;;;;;5096360;28;20157;-84
2022/06/11 14:11:55;;;;;;;6.80;2.13;;;23.70;99.90;;;;;;5105271;28;20248;-92
2022/06/11 14:14:41;;;;;;;6.57;1.80;;;23.90;99.90;;;;;;5096426;28;20170;-88
2022/06/11 14:17:58;;;;;;;7.73;2.77;;;24.10;99.90;;;;;;5098676;28;20170;-87
2022/06/11 14:20:31;;;;;;;5.97;1.93;;;24.40;99.70;;;;;;5081241;22;20233;-87
2022/06/11 14:23:22;;;;;;;6.00;1.70;;;24.40;1.00;;;;;;5113219;28;20186;-87
2022/06/11 14:25:49;;;;;;;6.30;2.20;;;24.40;1.00;;;;;;5116812;28;20186;-96
2022/06/11 14:28:18;;;;;;;8.40;2.17;;;24.50;1.00;;;;;;5137555;28;20161;-86
2022/06/11 14:30:48;;;;;;;6.10;1.90;;;24.60;99.90;;;;;;5124482;28;20249;-86
2022/06/11 14:33:23;;;;;;;4.30;1.77;;;24.60;99.90;;;;;;5122926;28;20221;-86
2022/06/11 14:35:54;;;;;;;7.00;2.03;;;24.60;44.70;;;;;;5122978;28;20150;-86
2022/06/11 14:39:03;;;;;;;7.53;2.17;;;24.80;99.90;;;;;;5114577;28;20170;-88
2022/06/11 14:41:31;;;;;;;6.00;2.00;;;24.90;1.00;;;;;;5113132;28;20162;-93
2022/06/11 14:44:01;;;;;;;5.33;1.67;;;25.10;1.00;;;;;;5091479;28;20175;-91
2022/06/11 14:46:32;;;;;;;4.87;1.67;;;25.20;99.90;;;;;;5113791;28;20166;-95
2022/06/11 14:49:26;;;;;;;6.70;2.10;;;25.20;99.90;;;;;;5115505;28;20207;-88
2022/06/11 14:52:05;;;;;;;5.77;1.80;;;25.20;99.90;;;;;;5104073;28;20210;-85
2022/06/11 14:54:42;;;;;;;5.13;1.90;;;25.20;99.90;;;;;;5121969;28;20188;-87
2022/06/11 14:57:31;;;;;;;6.53;2.00;;;25.20;1.00;;;;;;5123247;28;20167;-89
2022/06/11 15:00:21;;;;;;;7.30;2.20;;;25.10;1.00;;;;;;5132885;28;20172;-86
2022/06/11 15:03:09;;;;;;;3.93;1.77;;;24.80;99.90;;;;;;5126538;28;20182;-85
2022/06/11 15:06:14;;;;;;;6.37;1.93;;;24.50;99.90;;;;;;5105829;28;20182;-84
2022/06/11 15:09:17;;;;;;;4.77;1.93;;;24.70;38.40;;;;;;5118734;28;20198;-85
2022/06/11 15:12:38;;;;;;;6.47;1.87;;;24.50;99.90;;;;;;5099365;28;20259;-85
2022/06/11 15:18:23;;;;;;;5.30;1.60;;;24.40;99.90;;;;;;5120088;28;20183;-85
2022/06/11 15:20:59;;;;;;;6.53;1.87;;;24.40;99.90;;;;;;5083529;28;20218;-88
2022/06/11 15:23:38;;;;;;;4.03;1.57;;;24.50;1.00;;;;;;5097706;28;20205;-88